sensor_id;sensor_type;location;lat;lon;timestamp;P1;durP1;ratioP1;P2;durP2;ratioP2
23682;SDS011;24897;53.514;10.482;2023-07-02T00:00:22;45.30;;;37.73;;
23682;SDS011;24897;53.514;10.482;2023-07-02T00:03:06;51.97;;;41.33;;
23682;SDS011;24897;53.514;10.482;2023-07-02T00:05:50;47.03;;;39.40;;
23682;SDS011;24897;53.514;10.482;2023-07-02T00:08:38;48.70;;;39.83;;
23682;SDS011;24897;53.514;10.482;2023-07-02T00:11:24;49.47;;;40.23;;
23682;SDS011;24897;53.514;10.482;2023-07-02T00:14:08;59.67;;;41.13;;
23682;SDS011;24897;53.514;10.482;2023-07-02T00:16:53;48.97;;;39.17;;
23682;SDS011;24897;53.514;10.482;2023-07-02T00:19:37;50.20;;;38.77;;
23682;SDS011;24897;53.514;10.482;2023-07-02T00:22:23;50.47;;;38.67;;
23682;SDS011;24897;53.514;10.482;2023-07-02T00:25:07;55.07;;;41.67;;
23682;SDS011;24897;53.514;10.482;2023-07-02T00:27:52;55.43;;;43.87;;
23682;SDS011;24897;53.514;10.482;2023-07-02T00:30:36;54.10;;;42.37;;
23682;SDS011;24897;53.514;10.482;2023-07-02T00:33:20;48.97;;;40.37;;
23682;SDS011;24897;53.514;10.482;2023-07-02T00:36:04;48.27;;;38.30;;
23682;SDS011;24897;53.514;10.482;2023-07-02T00:38:49;61.00;;;44.40;;
23682;SDS011;24897;53.514;10.482;2023-07-02T00:41:33;49.30;;;39.67;;
23682;SDS011;24897;53.514;10.482;2023-07-02T00:44:17;48.30;;;38.30;;
23682;SDS011;24897;53.514;10.482;2023-07-02T00:47:01;51.57;;;41.90;;
23682;SDS011;24897;53.514;10.482;2023-07-02T00:49:46;52.60;;;41.90;;
23682;SDS011;24897;53.514;10.482;2023-07-02T00:52:30;51.60;;;39.63;;
23682;SDS011;24897;53.514;10.482;2023-07-02T00:55:14;52.13;;;39.70;;
23682;SDS011;24897;53.514;10.482;2023-07-02T00:57:59;51.33;;;39.03;;
23682;SDS011;24897;53.514;10.482;2023-07-02T01:00:43;53.47;;;38.97;;
23682;SDS011;24897;53.514;10.482;2023-07-02T01:03:27;50.97;;;40.80;;
23682;SDS011;24897;53.514;10.482;2023-07-02T01:06:12;50.17;;;39.47;;
23682;SDS011;24897;53.514;10.482;2023-07-02T01:09:00;51.07;;;38.80;;
23682;SDS011;24897;53.514;10.482;2023-07-02T01:11:46;55.77;;;42.13;;
23682;SDS011;24897;53.514;10.482;2023-07-02T01:14:39;48.60;;;39.60;;
23682;SDS011;24897;53.514;10.482;2023-07-02T01:17:25;53.87;;;40.10;;
23682;SDS011;24897;53.514;10.482;2023-07-02T01:20:12;52.67;;;41.17;;
23682;SDS011;24897;53.514;10.482;2023-07-02T01:22:57;46.00;;;39.17;;
23682;SDS011;24897;53.514;10.482;2023-07-02T01:25:46;53.57;;;40.13;;
23682;SDS011;24897;53.514;10.482;2023-07-02T01:28:34;46.73;;;38.00;;
23682;SDS011;24897;53.514;10.482;2023-07-02T01:31:20;48.50;;;39.10;;
23682;SDS011;24897;53.514;10.482;2023-07-02T01:34:08;49.73;;;39.87;;
23682;SDS011;24897;53.514;10.482;2023-07-02T01:36:53;48.97;;;37.07;;
23682;SDS011;24897;53.514;10.482;2023-07-02T01:39:37;52.00;;;40.73;;
23682;SDS011;24897;53.514;10.482;2023-07-02T01:42:21;48.70;;;38.27;;
23682;SDS011;24897;53.514;10.482;2023-07-02T01:45:05;45.77;;;35.53;;
23682;SDS011;24897;53.514;10.482;2023-07-02T01:47:50;49.63;;;38.07;;
23682;SDS011;24897;53.514;10.482;2023-07-02T01:50:34;47.67;;;36.50;;
23682;SDS011;24897;53.514;10.482;2023-07-02T01:53:18;46.67;;;38.50;;
23682;SDS011;24897;53.514;10.482;2023-07-02T01:56:02;58.03;;;43.77;;
23682;SDS011;24897;53.514;10.482;2023-07-02T01:58:47;63.40;;;43.13;;
23682;SDS011;24897;53.514;10.482;2023-07-02T02:01:31;51.37;;;37.40;;
23682;SDS011;24897;53.514;10.482;2023-07-02T02:04:16;47.07;;;38.73;;
23682;SDS011;24897;53.514;10.482;2023-07-02T02:07:00;42.87;;;36.37;;
23682;SDS011;24897;53.514;10.482;2023-07-02T02:09:44;50.93;;;35.87;;
23682;SDS011;24897;53.514;10.482;2023-07-02T02:12:28;48.20;;;38.10;;
23682;SDS011;24897;53.514;10.482;2023-07-02T02:15:13;50.83;;;40.13;;
23682;SDS011;24897;53.514;10.482;2023-07-02T02:17:58;50.67;;;40.57;;
23682;SDS011;24897;53.514;10.482;2023-07-02T02:20:42;53.33;;;38.80;;
23682;SDS011;24897;53.514;10.482;2023-07-02T02:23:26;58.77;;;43.33;;
23682;SDS011;24897;53.514;10.482;2023-07-02T02:26:10;52.97;;;40.67;;
23682;SDS011;24897;53.514;10.482;2023-07-02T02:28:54;55.07;;;40.07;;
23682;SDS011;24897;53.514;10.482;2023-07-02T02:31:38;57.20;;;42.20;;
23682;SDS011;24897;53.514;10.482;2023-07-02T02:34:22;48.53;;;38.57;;
23682;SDS011;24897;53.514;10.482;2023-07-02T02:37:06;52.47;;;39.80;;
23682;SDS011;24897;53.514;10.482;2023-07-02T02:39:50;50.83;;;39.57;;
23682;SDS011;24897;53.514;10.482;2023-07-02T02:42:34;46.80;;;38.37;;
23682;SDS011;24897;53.514;10.482;2023-07-02T02:45:19;45.80;;;36.90;;
23682;SDS011;24897;53.514;10.482;2023-07-02T02:48:04;54.50;;;41.07;;
23682;SDS011;24897;53.514;10.482;2023-07-02T02:50:48;55.93;;;43.07;;
23682;SDS011;24897;53.514;10.482;2023-07-02T02:53:32;51.40;;;41.33;;
23682;SDS011;24897;53.514;10.482;2023-07-02T02:56:16;52.20;;;40.20;;
23682;SDS011;24897;53.514;10.482;2023-07-02T02:59:00;45.50;;;37.97;;
23682;SDS011;24897;53.514;10.482;2023-07-02T03:01:45;55.37;;;44.43;;
23682;SDS011;24897;53.514;10.482;2023-07-02T03:04:30;47.87;;;40.30;;
23682;SDS011;24897;53.514;10.482;2023-07-02T03:07:15;53.33;;;43.43;;
23682;SDS011;24897;53.514;10.482;2023-07-02T03:09:59;46.77;;;37.43;;
23682;SDS011;24897;53.514;10.482;2023-07-02T03:12:43;43.90;;;38.47;;
23682;SDS011;24897;53.514;10.482;2023-07-02T03:15:28;49.87;;;41.47;;
23682;SDS011;24897;53.514;10.482;2023-07-02T03:18:12;52.07;;;42.60;;
23682;SDS011;24897;53.514;10.482;2023-07-02T03:20:56;52.80;;;41.13;;
23682;SDS011;24897;53.514;10.482;2023-07-02T03:23:40;50.53;;;42.33;;
23682;SDS011;24897;53.514;10.482;2023-07-02T03:26:25;48.80;;;42.00;;
23682;SDS011;24897;53.514;10.482;2023-07-02T03:29:09;45.70;;;38.97;;
23682;SDS011;24897;53.514;10.482;2023-07-02T03:31:54;53.67;;;41.60;;
23682;SDS011;24897;53.514;10.482;2023-07-02T03:34:38;44.37;;;37.60;;
23682;SDS011;24897;53.514;10.482;2023-07-02T03:37:22;47.80;;;38.27;;
23682;SDS011;24897;53.514;10.482;2023-07-02T03:40:06;50.23;;;42.90;;
23682;SDS011;24897;53.514;10.482;2023-07-02T03:42:51;40.87;;;35.20;;
23682;SDS011;24897;53.514;10.482;2023-07-02T03:45:35;42.37;;;37.57;;
23682;SDS011;24897;53.514;10.482;2023-07-02T03:48:19;42.20;;;34.67;;
23682;SDS011;24897;53.514;10.482;2023-07-02T03:51:03;41.17;;;32.97;;
23682;SDS011;24897;53.514;10.482;2023-07-02T03:53:48;43.03;;;31.83;;
23682;SDS011;24897;53.514;10.482;2023-07-02T03:56:32;35.53;;;30.90;;
23682;SDS011;24897;53.514;10.482;2023-07-02T03:59:16;34.00;;;29.93;;
23682;SDS011;24897;53.514;10.482;2023-07-02T04:02:00;39.30;;;30.27;;
23682;SDS011;24897;53.514;10.482;2023-07-02T04:04:44;37.00;;;31.17;;
23682;SDS011;24897;53.514;10.482;2023-07-02T04:07:29;35.50;;;31.67;;
23682;SDS011;24897;53.514;10.482;2023-07-02T04:10:13;34.80;;;30.90;;
23682;SDS011;24897;53.514;10.482;2023-07-02T04:12:57;35.57;;;31.73;;
23682;SDS011;24897;53.514;10.482;2023-07-02T04:15:42;33.90;;;30.20;;
23682;SDS011;24897;53.514;10.482;2023-07-02T04:18:26;36.53;;;30.77;;
23682;SDS011;24897;53.514;10.482;2023-07-02T04:21:12;33.77;;;29.93;;
23682;SDS011;24897;53.514;10.482;2023-07-02T04:23:56;35.57;;;31.67;;
23682;SDS011;24897;53.514;10.482;2023-07-02T04:26:40;35.23;;;31.13;;
23682;SDS011;24897;53.514;10.482;2023-07-02T04:29:26;33.43;;;29.67;;
23682;SDS011;24897;53.514;10.482;2023-07-02T04:32:10;33.03;;;29.70;;
23682;SDS011;24897;53.514;10.482;2023-07-02T04:34:54;33.13;;;29.60;;
23682;SDS011;24897;53.514;10.482;2023-07-02T04:37:39;34.23;;;30.57;;
23682;SDS011;24897;53.514;10.482;2023-07-02T04:40:24;35.70;;;31.90;;
23682;SDS011;24897;53.514;10.482;2023-07-02T04:43:08;34.20;;;30.43;;
23682;SDS011;24897;53.514;10.482;2023-07-02T04:45:52;33.97;;;30.47;;
23682;SDS011;24897;53.514;10.482;2023-07-02T04:48:38;31.27;;;28.10;;
23682;SDS011;24897;53.514;10.482;2023-07-02T04:51:22;31.33;;;28.33;;
23682;SDS011;24897;53.514;10.482;2023-07-02T04:54:06;32.67;;;29.27;;
23682;SDS011;24897;53.514;10.482;2023-07-02T04:56:51;30.87;;;27.57;;
23682;SDS011;24897;53.514;10.482;2023-07-02T04:59:35;30.77;;;27.67;;
23682;SDS011;24897;53.514;10.482;2023-07-02T05:02:19;26.97;;;24.23;;
23682;SDS011;24897;53.514;10.482;2023-07-02T05:05:04;29.13;;;26.30;;
23682;SDS011;24897;53.514;10.482;2023-07-02T05:07:48;28.87;;;25.83;;
23682;SDS011;24897;53.514;10.482;2023-07-02T05:10:32;30.23;;;27.13;;
23682;SDS011;24897;53.514;10.482;2023-07-02T05:13:16;30.00;;;26.70;;
23682;SDS011;24897;53.514;10.482;2023-07-02T05:16:00;30.37;;;26.20;;
23682;SDS011;24897;53.514;10.482;2023-07-02T05:18:44;32.23;;;26.80;;
23682;SDS011;24897;53.514;10.482;2023-07-02T05:21:28;27.53;;;24.00;;
23682;SDS011;24897;53.514;10.482;2023-07-02T05:24:12;28.97;;;25.83;;
23682;SDS011;24897;53.514;10.482;2023-07-02T05:26:57;29.03;;;25.67;;
23682;SDS011;24897;53.514;10.482;2023-07-02T05:29:42;26.93;;;24.03;;
23682;SDS011;24897;53.514;10.482;2023-07-02T05:32:26;30.00;;;23.50;;
23682;SDS011;24897;53.514;10.482;2023-07-02T05:35:10;26.27;;;21.80;;
23682;SDS011;24897;53.514;10.482;2023-07-02T05:37:55;26.77;;;23.53;;
23682;SDS011;24897;53.514;10.482;2023-07-02T05:40:39;28.27;;;23.40;;
23682;SDS011;24897;53.514;10.482;2023-07-02T05:43:23;30.10;;;23.90;;
23682;SDS011;24897;53.514;10.482;2023-07-02T05:46:07;25.87;;;22.77;;
23682;SDS011;24897;53.514;10.482;2023-07-02T05:48:51;28.27;;;23.27;;
23682;SDS011;24897;53.514;10.482;2023-07-02T05:51:35;26.10;;;23.27;;
23682;SDS011;24897;53.514;10.482;2023-07-02T05:54:20;28.10;;;22.63;;
23682;SDS011;24897;53.514;10.482;2023-07-02T05:57:04;26.90;;;21.77;;
23682;SDS011;24897;53.514;10.482;2023-07-02T05:59:48;25.57;;;20.87;;
23682;SDS011;24897;53.514;10.482;2023-07-02T06:02:32;24.87;;;20.73;;
23682;SDS011;24897;53.514;10.482;2023-07-02T06:05:16;25.97;;;20.97;;
23682;SDS011;24897;53.514;10.482;2023-07-02T06:08:00;23.37;;;20.77;;
23682;SDS011;24897;53.514;10.482;2023-07-02T06:10:45;27.17;;;19.80;;
23682;SDS011;24897;53.514;10.482;2023-07-02T06:13:30;25.40;;;19.87;;
23682;SDS011;24897;53.514;10.482;2023-07-02T06:16:14;28.97;;;20.33;;
23682;SDS011;24897;53.514;10.482;2023-07-02T06:18:58;27.80;;;20.00;;
23682;SDS011;24897;53.514;10.482;2023-07-02T06:21:42;24.77;;;20.03;;
23682;SDS011;24897;53.514;10.482;2023-07-02T06:24:26;27.53;;;20.67;;
23682;SDS011;24897;53.514;10.482;2023-07-02T06:27:10;30.00;;;20.70;;
23682;SDS011;24897;53.514;10.482;2023-07-02T06:29:54;29.93;;;20.23;;
23682;SDS011;24897;53.514;10.482;2023-07-02T06:32:39;27.77;;;20.23;;
23682;SDS011;24897;53.514;10.482;2023-07-02T06:35:23;27.83;;;21.17;;
23682;SDS011;24897;53.514;10.482;2023-07-02T06:38:07;26.23;;;19.50;;
23682;SDS011;24897;53.514;10.482;2023-07-02T06:40:51;26.50;;;19.60;;
23682;SDS011;24897;53.514;10.482;2023-07-02T06:43:35;29.43;;;20.13;;
23682;SDS011;24897;53.514;10.482;2023-07-02T06:46:19;29.70;;;20.60;;
23682;SDS011;24897;53.514;10.482;2023-07-02T06:49:03;26.47;;;19.93;;
23682;SDS011;24897;53.514;10.482;2023-07-02T06:51:47;27.73;;;20.10;;
23682;SDS011;24897;53.514;10.482;2023-07-02T06:54:31;25.00;;;19.63;;
23682;SDS011;24897;53.514;10.482;2023-07-02T06:57:16;28.83;;;19.63;;
23682;SDS011;24897;53.514;10.482;2023-07-02T07:00:00;26.20;;;20.03;;
23682;SDS011;24897;53.514;10.482;2023-07-02T07:02:44;25.57;;;19.30;;
23682;SDS011;24897;53.514;10.482;2023-07-02T07:05:31;27.53;;;19.70;;
23682;SDS011;24897;53.514;10.482;2023-07-02T07:08:16;28.37;;;19.57;;
23682;SDS011;24897;53.514;10.482;2023-07-02T07:11:00;25.97;;;18.80;;
23682;SDS011;24897;53.514;10.482;2023-07-02T07:13:44;29.83;;;21.73;;
23682;SDS011;24897;53.514;10.482;2023-07-02T07:16:28;49.63;;;33.77;;
23682;SDS011;24897;53.514;10.482;2023-07-02T07:19:12;27.07;;;19.90;;
23682;SDS011;24897;53.514;10.482;2023-07-02T07:21:57;27.30;;;19.40;;
23682;SDS011;24897;53.514;10.482;2023-07-02T07:24:41;28.33;;;19.97;;
23682;SDS011;24897;53.514;10.482;2023-07-02T07:27:26;30.97;;;19.27;;
23682;SDS011;24897;53.514;10.482;2023-07-02T07:30:10;27.53;;;19.53;;
23682;SDS011;24897;53.514;10.482;2023-07-02T07:32:55;31.37;;;19.83;;
23682;SDS011;24897;53.514;10.482;2023-07-02T07:35:40;24.13;;;19.50;;
23682;SDS011;24897;53.514;10.482;2023-07-02T07:38:24;27.57;;;19.20;;
23682;SDS011;24897;53.514;10.482;2023-07-02T07:41:09;25.93;;;19.77;;
23682;SDS011;24897;53.514;10.482;2023-07-02T07:43:54;24.97;;;18.50;;
23682;SDS011;24897;53.514;10.482;2023-07-02T07:46:38;26.63;;;19.03;;
23682;SDS011;24897;53.514;10.482;2023-07-02T07:49:22;24.43;;;20.00;;
23682;SDS011;24897;53.514;10.482;2023-07-02T07:52:07;27.83;;;19.93;;
23682;SDS011;24897;53.514;10.482;2023-07-02T07:54:51;32.10;;;20.87;;
23682;SDS011;24897;53.514;10.482;2023-07-02T07:57:37;27.50;;;20.63;;
23682;SDS011;24897;53.514;10.482;2023-07-02T08:00:21;27.20;;;20.10;;
23682;SDS011;24897;53.514;10.482;2023-07-02T08:03:09;27.67;;;21.17;;
23682;SDS011;24897;53.514;10.482;2023-07-02T08:05:53;30.40;;;23.10;;
23682;SDS011;24897;53.514;10.482;2023-07-02T08:08:37;49.07;;;44.57;;
23682;SDS011;24897;53.514;10.482;2023-07-02T08:11:21;46.90;;;42.67;;
23682;SDS011;24897;53.514;10.482;2023-07-02T08:14:05;45.73;;;41.57;;
23682;SDS011;24897;53.514;10.482;2023-07-02T08:16:50;42.20;;;38.57;;
23682;SDS011;24897;53.514;10.482;2023-07-02T08:19:35;38.73;;;35.23;;
23682;SDS011;24897;53.514;10.482;2023-07-02T08:22:20;37.77;;;34.33;;
23682;SDS011;24897;53.514;10.482;2023-07-02T08:25:04;40.70;;;36.80;;
23682;SDS011;24897;53.514;10.482;2023-07-02T08:27:49;37.70;;;34.23;;
23682;SDS011;24897;53.514;10.482;2023-07-02T08:30:35;36.67;;;33.07;;
23682;SDS011;24897;53.514;10.482;2023-07-02T08:33:19;37.40;;;33.77;;
23682;SDS011;24897;53.514;10.482;2023-07-02T08:36:04;39.80;;;36.17;;
23682;SDS011;24897;53.514;10.482;2023-07-02T08:38:48;38.50;;;35.13;;
23682;SDS011;24897;53.514;10.482;2023-07-02T08:41:41;39.90;;;36.17;;
23682;SDS011;24897;53.514;10.482;2023-07-02T08:44:29;39.63;;;36.20;;
23682;SDS011;24897;53.514;10.482;2023-07-02T08:47:13;38.33;;;34.80;;
23682;SDS011;24897;53.514;10.482;2023-07-02T08:49:57;40.20;;;36.73;;
23682;SDS011;24897;53.514;10.482;2023-07-02T08:52:42;39.17;;;35.70;;
23682;SDS011;24897;53.514;10.482;2023-07-02T08:55:28;38.37;;;35.03;;
23682;SDS011;24897;53.514;10.482;2023-07-02T08:58:14;38.57;;;34.80;;
23682;SDS011;24897;53.514;10.482;2023-07-02T09:03:52;38.63;;;35.13;;
23682;SDS011;24897;53.514;10.482;2023-07-02T09:06:43;39.83;;;36.20;;
23682;SDS011;24897;53.514;10.482;2023-07-02T09:09:27;40.03;;;36.57;;
23682;SDS011;24897;53.514;10.482;2023-07-02T09:12:21;39.17;;;35.47;;
23682;SDS011;24897;53.514;10.482;2023-07-02T09:15:15;36.77;;;33.53;;
23682;SDS011;24897;53.514;10.482;2023-07-02T09:17:59;37.83;;;34.53;;
23682;SDS011;24897;53.514;10.482;2023-07-02T09:20:44;37.40;;;34.10;;
23682;SDS011;24897;53.514;10.482;2023-07-02T09:23:33;35.63;;;32.73;;
23682;SDS011;24897;53.514;10.482;2023-07-02T09:26:21;35.50;;;32.50;;
23682;SDS011;24897;53.514;10.482;2023-07-02T09:29:06;37.10;;;33.67;;
23682;SDS011;24897;53.514;10.482;2023-07-02T09:31:50;34.60;;;31.53;;
23682;SDS011;24897;53.514;10.482;2023-07-02T09:34:35;36.60;;;33.40;;
23682;SDS011;24897;53.514;10.482;2023-07-02T09:37:21;35.70;;;32.57;;
23682;SDS011;24897;53.514;10.482;2023-07-02T09:40:06;35.50;;;32.60;;
23682;SDS011;24897;53.514;10.482;2023-07-02T09:42:52;34.70;;;31.90;;
23682;SDS011;24897;53.514;10.482;2023-07-02T09:45:38;34.67;;;31.80;;
23682;SDS011;24897;53.514;10.482;2023-07-02T09:48:29;34.93;;;31.93;;
23682;SDS011;24897;53.514;10.482;2023-07-02T09:51:19;35.23;;;32.03;;
23682;SDS011;24897;53.514;10.482;2023-07-02T09:54:04;34.70;;;31.80;;
23682;SDS011;24897;53.514;10.482;2023-07-02T09:56:48;47.57;;;42.90;;
23682;SDS011;24897;53.514;10.482;2023-07-02T09:59:32;39.67;;;35.67;;
23682;SDS011;24897;53.514;10.482;2023-07-02T10:02:17;35.43;;;32.40;;
23682;SDS011;24897;53.514;10.482;2023-07-02T10:05:02;37.87;;;34.70;;
23682;SDS011;24897;53.514;10.482;2023-07-02T10:07:46;35.97;;;32.77;;
23682;SDS011;24897;53.514;10.482;2023-07-02T10:10:31;38.03;;;34.57;;
23682;SDS011;24897;53.514;10.482;2023-07-02T10:13:26;39.13;;;35.17;;
23682;SDS011;24897;53.514;10.482;2023-07-02T10:16:10;35.97;;;32.57;;
23682;SDS011;24897;53.514;10.482;2023-07-02T10:18:55;37.60;;;34.40;;
23682;SDS011;24897;53.514;10.482;2023-07-02T10:21:39;34.10;;;31.13;;
23682;SDS011;24897;53.514;10.482;2023-07-02T10:24:23;37.17;;;33.67;;
23682;SDS011;24897;53.514;10.482;2023-07-02T10:27:07;34.20;;;31.30;;
23682;SDS011;24897;53.514;10.482;2023-07-02T10:29:52;31.17;;;28.33;;
23682;SDS011;24897;53.514;10.482;2023-07-02T10:32:37;32.47;;;29.60;;
23682;SDS011;24897;53.514;10.482;2023-07-02T10:35:22;31.97;;;29.17;;
23682;SDS011;24897;53.514;10.482;2023-07-02T10:38:06;32.20;;;29.17;;
23682;SDS011;24897;53.514;10.482;2023-07-02T10:40:54;31.87;;;29.20;;
23682;SDS011;24897;53.514;10.482;2023-07-02T10:43:43;30.90;;;28.07;;
23682;SDS011;24897;53.514;10.482;2023-07-02T10:46:27;33.20;;;30.40;;
23682;SDS011;24897;53.514;10.482;2023-07-02T10:49:11;29.63;;;26.47;;
23682;SDS011;24897;53.514;10.482;2023-07-02T10:51:57;27.77;;;25.37;;
23682;SDS011;24897;53.514;10.482;2023-07-02T10:54:47;28.97;;;26.27;;
23682;SDS011;24897;53.514;10.482;2023-07-02T10:57:32;29.60;;;26.80;;
23682;SDS011;24897;53.514;10.482;2023-07-02T11:00:16;28.43;;;25.83;;
23682;SDS011;24897;53.514;10.482;2023-07-02T11:03:02;27.57;;;25.27;;
23682;SDS011;24897;53.514;10.482;2023-07-02T11:05:47;28.57;;;25.27;;
23682;SDS011;24897;53.514;10.482;2023-07-02T11:08:35;26.40;;;23.80;;
23682;SDS011;24897;53.514;10.482;2023-07-02T11:11:20;25.03;;;23.00;;
23682;SDS011;24897;53.514;10.482;2023-07-02T11:14:06;24.97;;;22.77;;
23682;SDS011;24897;53.514;10.482;2023-07-02T11:16:53;26.37;;;23.83;;
23682;SDS011;24897;53.514;10.482;2023-07-02T11:19:38;24.93;;;22.53;;
23682;SDS011;24897;53.514;10.482;2023-07-02T11:22:30;25.70;;;23.37;;
23682;SDS011;24897;53.514;10.482;2023-07-02T11:25:18;24.10;;;21.60;;
23682;SDS011;24897;53.514;10.482;2023-07-02T11:28:07;22.93;;;20.93;;
23682;SDS011;24897;53.514;10.482;2023-07-02T11:30:51;21.90;;;19.80;;
23682;SDS011;24897;53.514;10.482;2023-07-02T11:33:36;25.60;;;23.43;;
23682;SDS011;24897;53.514;10.482;2023-07-02T11:36:23;26.97;;;24.77;;
23682;SDS011;24897;53.514;10.482;2023-07-02T11:39:08;25.83;;;23.73;;
23682;SDS011;24897;53.514;10.482;2023-07-02T11:41:52;21.13;;;19.20;;
23682;SDS011;24897;53.514;10.482;2023-07-02T11:44:37;17.87;;;16.27;;
23682;SDS011;24897;53.514;10.482;2023-07-02T11:47:21;18.40;;;16.60;;
23682;SDS011;24897;53.514;10.482;2023-07-02T11:50:06;18.13;;;16.53;;
23682;SDS011;24897;53.514;10.482;2023-07-02T11:52:50;17.73;;;16.00;;
23682;SDS011;24897;53.514;10.482;2023-07-02T11:55:36;18.60;;;16.70;;
23682;SDS011;24897;53.514;10.482;2023-07-02T11:58:20;19.27;;;16.67;;
23682;SDS011;24897;53.514;10.482;2023-07-02T12:01:05;18.33;;;16.60;;
23682;SDS011;24897;53.514;10.482;2023-07-02T12:03:49;19.00;;;17.10;;
23682;SDS011;24897;53.514;10.482;2023-07-02T12:06:34;18.57;;;16.67;;
23682;SDS011;24897;53.514;10.482;2023-07-02T12:09:18;18.20;;;16.57;;
23682;SDS011;24897;53.514;10.482;2023-07-02T12:12:02;20.30;;;17.97;;
23682;SDS011;24897;53.514;10.482;2023-07-02T12:14:47;19.40;;;17.60;;
23682;SDS011;24897;53.514;10.482;2023-07-02T12:17:31;18.83;;;16.90;;
23682;SDS011;24897;53.514;10.482;2023-07-02T12:20:15;17.93;;;16.27;;
23682;SDS011;24897;53.514;10.482;2023-07-02T12:22:59;18.00;;;16.27;;
23682;SDS011;24897;53.514;10.482;2023-07-02T12:25:44;17.50;;;15.80;;
23682;SDS011;24897;53.514;10.482;2023-07-02T12:28:28;17.77;;;16.17;;
23682;SDS011;24897;53.514;10.482;2023-07-02T12:31:12;16.93;;;15.23;;
23682;SDS011;24897;53.514;10.482;2023-07-02T12:33:57;17.63;;;15.97;;
23682;SDS011;24897;53.514;10.482;2023-07-02T12:36:41;17.43;;;15.77;;
23682;SDS011;24897;53.514;10.482;2023-07-02T12:39:25;16.03;;;14.50;;
23682;SDS011;24897;53.514;10.482;2023-07-02T12:42:10;19.57;;;15.27;;
23682;SDS011;24897;53.514;10.482;2023-07-02T12:44:54;17.27;;;15.53;;
23682;SDS011;24897;53.514;10.482;2023-07-02T12:47:39;16.80;;;15.30;;
23682;SDS011;24897;53.514;10.482;2023-07-02T12:50:24;16.97;;;15.30;;
23682;SDS011;24897;53.514;10.482;2023-07-02T12:53:09;17.83;;;15.40;;
23682;SDS011;24897;53.514;10.482;2023-07-02T12:55:53;17.97;;;16.03;;
23682;SDS011;24897;53.514;10.482;2023-07-02T12:58:38;17.53;;;15.87;;
23682;SDS011;24897;53.514;10.482;2023-07-02T13:01:22;17.30;;;15.60;;
23682;SDS011;24897;53.514;10.482;2023-07-02T13:04:07;17.37;;;15.83;;
23682;SDS011;24897;53.514;10.482;2023-07-02T13:06:52;17.30;;;15.60;;
23682;SDS011;24897;53.514;10.482;2023-07-02T13:09:36;17.63;;;16.00;;
23682;SDS011;24897;53.514;10.482;2023-07-02T13:12:20;19.27;;;16.23;;
23682;SDS011;24897;53.514;10.482;2023-07-02T13:15:05;18.07;;;16.17;;
23682;SDS011;24897;53.514;10.482;2023-07-02T13:17:50;17.73;;;14.93;;
23682;SDS011;24897;53.514;10.482;2023-07-02T13:20:34;18.30;;;16.50;;
23682;SDS011;24897;53.514;10.482;2023-07-02T13:23:19;17.90;;;16.17;;
23682;SDS011;24897;53.514;10.482;2023-07-02T13:26:03;17.93;;;16.07;;
23682;SDS011;24897;53.514;10.482;2023-07-02T13:28:47;16.67;;;15.17;;
23682;SDS011;24897;53.514;10.482;2023-07-02T13:31:31;16.83;;;15.27;;
23682;SDS011;24897;53.514;10.482;2023-07-02T13:34:15;17.43;;;15.53;;
23682;SDS011;24897;53.514;10.482;2023-07-02T13:36:59;17.77;;;15.87;;
23682;SDS011;24897;53.514;10.482;2023-07-02T13:39:47;17.10;;;15.40;;
23682;SDS011;24897;53.514;10.482;2023-07-02T13:42:32;17.60;;;15.53;;
23682;SDS011;24897;53.514;10.482;2023-07-02T13:45:16;19.90;;;15.30;;
23682;SDS011;24897;53.514;10.482;2023-07-02T13:48:00;17.17;;;15.63;;
23682;SDS011;24897;53.514;10.482;2023-07-02T13:50:45;20.17;;;15.87;;
23682;SDS011;24897;53.514;10.482;2023-07-02T13:53:29;17.80;;;15.90;;
23682;SDS011;24897;53.514;10.482;2023-07-02T13:56:13;16.40;;;14.90;;
23682;SDS011;24897;53.514;10.482;2023-07-02T14:01:41;17.53;;;15.67;;
23682;SDS011;24897;53.514;10.482;2023-07-02T14:04:26;16.53;;;15.00;;
23682;SDS011;24897;53.514;10.482;2023-07-02T14:07:11;18.50;;;16.23;;
23682;SDS011;24897;53.514;10.482;2023-07-02T14:09:55;16.97;;;15.10;;
23682;SDS011;24897;53.514;10.482;2023-07-02T14:12:40;16.07;;;14.57;;
23682;SDS011;24897;53.514;10.482;2023-07-02T14:15:25;16.77;;;14.60;;
23682;SDS011;24897;53.514;10.482;2023-07-02T14:18:11;16.50;;;14.80;;
23682;SDS011;24897;53.514;10.482;2023-07-02T14:20:55;16.40;;;14.70;;
23682;SDS011;24897;53.514;10.482;2023-07-02T14:23:39;16.87;;;15.13;;
23682;SDS011;24897;53.514;10.482;2023-07-02T14:26:23;17.63;;;15.83;;
23682;SDS011;24897;53.514;10.482;2023-07-02T14:29:08;17.10;;;15.27;;
23682;SDS011;24897;53.514;10.482;2023-07-02T14:31:52;17.20;;;15.40;;
23682;SDS011;24897;53.514;10.482;2023-07-02T14:34:36;16.47;;;14.87;;
23682;SDS011;24897;53.514;10.482;2023-07-02T14:37:20;17.33;;;15.53;;
23682;SDS011;24897;53.514;10.482;2023-07-02T14:40:04;20.27;;;15.50;;
23682;SDS011;24897;53.514;10.482;2023-07-02T14:42:49;16.77;;;15.13;;
23682;SDS011;24897;53.514;10.482;2023-07-02T14:45:34;17.50;;;15.80;;
23682;SDS011;24897;53.514;10.482;2023-07-02T14:48:19;18.30;;;15.70;;
23682;SDS011;24897;53.514;10.482;2023-07-02T14:51:03;17.60;;;15.80;;
23682;SDS011;24897;53.514;10.482;2023-07-02T14:53:48;17.03;;;15.30;;
23682;SDS011;24897;53.514;10.482;2023-07-02T14:56:34;19.03;;;15.57;;
23682;SDS011;24897;53.514;10.482;2023-07-02T14:59:19;16.93;;;15.17;;
23682;SDS011;24897;53.514;10.482;2023-07-02T15:02:03;17.53;;;15.83;;
23682;SDS011;24897;53.514;10.482;2023-07-02T15:04:48;17.23;;;15.57;;
23682;SDS011;24897;53.514;10.482;2023-07-02T15:07:32;17.30;;;15.57;;
23682;SDS011;24897;53.514;10.482;2023-07-02T15:10:17;17.00;;;15.40;;
23682;SDS011;24897;53.514;10.482;2023-07-02T15:13:01;17.80;;;15.67;;
23682;SDS011;24897;53.514;10.482;2023-07-02T15:15:46;16.43;;;14.73;;
23682;SDS011;24897;53.514;10.482;2023-07-02T15:18:32;16.03;;;14.60;;
23682;SDS011;24897;53.514;10.482;2023-07-02T15:21:16;17.17;;;15.37;;
23682;SDS011;24897;53.514;10.482;2023-07-02T15:24:01;16.30;;;14.57;;
23682;SDS011;24897;53.514;10.482;2023-07-02T15:26:46;16.83;;;15.20;;
23682;SDS011;24897;53.514;10.482;2023-07-02T15:29:31;16.30;;;14.70;;
23682;SDS011;24897;53.514;10.482;2023-07-02T15:32:16;19.50;;;15.30;;
23682;SDS011;24897;53.514;10.482;2023-07-02T15:35:00;16.93;;;14.93;;
23682;SDS011;24897;53.514;10.482;2023-07-02T15:37:44;16.80;;;15.00;;
23682;SDS011;24897;53.514;10.482;2023-07-02T15:40:28;17.23;;;15.40;;
23682;SDS011;24897;53.514;10.482;2023-07-02T15:43:12;17.23;;;15.47;;
23682;SDS011;24897;53.514;10.482;2023-07-02T15:45:56;17.93;;;15.57;;
23682;SDS011;24897;53.514;10.482;2023-07-02T15:48:41;18.00;;;15.90;;
23682;SDS011;24897;53.514;10.482;2023-07-02T15:51:25;16.30;;;14.77;;
23682;SDS011;24897;53.514;10.482;2023-07-02T15:54:10;16.93;;;15.03;;